sensor_id;sensor_type;location;lat;lon;timestamp;P1;durP1;ratioP1;P2;durP2;ratioP2
33347;SDS011;19707;51.158;17.124;2022-12-07T00:03:00;14.05;;;10.53;;
33347;SDS011;19707;51.158;17.124;2022-12-07T00:06:02;15.40;;;11.22;;
33347;SDS011;19707;51.158;17.124;2022-12-07T00:09:06;14.43;;;10.25;;
33347;SDS011;19707;51.158;17.124;2022-12-07T00:12:12;14.45;;;10.28;;
33347;SDS011;19707;51.158;17.124;2022-12-07T00:15:13;14.75;;;10.30;;
33347;SDS011;19707;51.158;17.124;2022-12-07T00:18:15;15.83;;;10.18;;
33347;SDS011;19707;51.158;17.124;2022-12-07T00:21:18;13.30;;;9.35;;
33347;SDS011;19707;51.158;17.124;2022-12-07T00:24:22;12.00;;;8.78;;
33347;SDS011;19707;51.158;17.124;2022-12-07T00:27:24;11.05;;;9.15;;
33347;SDS011;19707;51.158;17.124;2022-12-07T00:30:25;12.88;;;8.68;;
33347;SDS011;19707;51.158;17.124;2022-12-07T00:33:27;11.38;;;8.18;;
33347;SDS011;19707;51.158;17.124;2022-12-07T00:36:29;11.15;;;8.13;;
33347;SDS011;19707;51.158;17.124;2022-12-07T00:39:30;14.25;;;7.97;;
33347;SDS011;19707;51.158;17.124;2022-12-07T00:42:32;12.25;;;7.72;;
33347;SDS011;19707;51.158;17.124;2022-12-07T00:45:34;9.78;;;7.33;;
33347;SDS011;19707;51.158;17.124;2022-12-07T00:48:35;13.70;;;7.00;;
33347;SDS011;19707;51.158;17.124;2022-12-07T00:51:37;10.20;;;6.97;;
33347;SDS011;19707;51.158;17.124;2022-12-07T00:54:39;10.75;;;7.58;;
33347;SDS011;19707;51.158;17.124;2022-12-07T00:57:41;12.50;;;9.78;;
33347;SDS011;19707;51.158;17.124;2022-12-07T01:00:42;13.88;;;10.23;;
33347;SDS011;19707;51.158;17.124;2022-12-07T01:03:44;12.55;;;9.03;;
33347;SDS011;19707;51.158;17.124;2022-12-07T01:06:46;12.40;;;9.60;;
33347;SDS011;19707;51.158;17.124;2022-12-07T01:09:47;10.78;;;8.65;;
33347;SDS011;19707;51.158;17.124;2022-12-07T01:12:51;12.98;;;8.65;;
33347;SDS011;19707;51.158;17.124;2022-12-07T01:15:55;10.18;;;7.05;;
33347;SDS011;19707;51.158;17.124;2022-12-07T01:19:02;8.23;;;5.67;;
33347;SDS011;19707;51.158;17.124;2022-12-07T01:22:05;6.58;;;5.60;;
33347;SDS011;19707;51.158;17.124;2022-12-07T01:25:07;9.33;;;5.45;;
33347;SDS011;19707;51.158;17.124;2022-12-07T01:28:10;7.37;;;5.22;;
33347;SDS011;19707;51.158;17.124;2022-12-07T01:31:13;8.03;;;5.45;;
33347;SDS011;19707;51.158;17.124;2022-12-07T01:34:21;8.28;;;5.25;;
33347;SDS011;19707;51.158;17.124;2022-12-07T01:37:22;8.53;;;5.42;;
33347;SDS011;19707;51.158;17.124;2022-12-07T01:40:24;6.33;;;4.90;;
33347;SDS011;19707;51.158;17.124;2022-12-07T01:43:26;11.97;;;8.23;;
33347;SDS011;19707;51.158;17.124;2022-12-07T01:46:30;5.90;;;4.28;;
33347;SDS011;19707;51.158;17.124;2022-12-07T01:49:35;6.72;;;4.50;;
33347;SDS011;19707;51.158;17.124;2022-12-07T01:52:49;8.15;;;4.92;;
33347;SDS011;19707;51.158;17.124;2022-12-07T01:55:52;5.40;;;4.65;;
33347;SDS011;19707;51.158;17.124;2022-12-07T01:58:54;6.97;;;4.92;;
33347;SDS011;19707;51.158;17.124;2022-12-07T02:01:57;5.72;;;4.78;;
33347;SDS011;19707;51.158;17.124;2022-12-07T02:05:02;8.73;;;4.22;;
33347;SDS011;19707;51.158;17.124;2022-12-07T02:08:06;7.92;;;4.28;;
33347;SDS011;19707;51.158;17.124;2022-12-07T02:11:08;6.95;;;4.55;;
33347;SDS011;19707;51.158;17.124;2022-12-07T02:14:10;4.85;;;4.08;;
33347;SDS011;19707;51.158;17.124;2022-12-07T02:20:39;4.05;;;3.22;;
33347;SDS011;19707;51.158;17.124;2022-12-07T02:27:32;4.72;;;3.27;;
33347;SDS011;19707;51.158;17.124;2022-12-07T02:30:35;4.08;;;3.10;;
33347;SDS011;19707;51.158;17.124;2022-12-07T02:33:45;4.00;;;2.85;;
33347;SDS011;19707;51.158;17.124;2022-12-07T02:36:54;4.92;;;2.80;;
33347;SDS011;19707;51.158;17.124;2022-12-07T02:39:59;4.65;;;2.72;;
33347;SDS011;19707;51.158;17.124;2022-12-07T02:43:22;4.15;;;2.90;;
33347;SDS011;19707;51.158;17.124;2022-12-07T02:46:33;3.42;;;2.60;;
33347;SDS011;19707;51.158;17.124;2022-12-07T02:49:38;4.37;;;2.67;;
33347;SDS011;19707;51.158;17.124;2022-12-07T02:52:40;3.92;;;3.02;;
33347;SDS011;19707;51.158;17.124;2022-12-07T02:55:42;4.30;;;2.27;;
33347;SDS011;19707;51.158;17.124;2022-12-07T03:06:06;4.72;;;2.80;;
33347;SDS011;19707;51.158;17.124;2022-12-07T03:09:13;2.95;;;2.25;;
33347;SDS011;19707;51.158;17.124;2022-12-07T03:12:21;4.50;;;2.47;;
33347;SDS011;19707;51.158;17.124;2022-12-07T03:15:35;2.12;;;1.92;;
33347;SDS011;19707;51.158;17.124;2022-12-07T03:18:42;2.20;;;1.85;;
33347;SDS011;19707;51.158;17.124;2022-12-07T03:22:03;3.40;;;2.52;;
33347;SDS011;19707;51.158;17.124;2022-12-07T03:25:09;1.85;;;1.75;;
33347;SDS011;19707;51.158;17.124;2022-12-07T03:28:13;2.87;;;2.45;;
33347;SDS011;19707;51.158;17.124;2022-12-07T03:31:22;4.08;;;2.00;;
33347;SDS011;19707;51.158;17.124;2022-12-07T03:34:36;2.90;;;2.15;;
33347;SDS011;19707;51.158;17.124;2022-12-07T03:37:42;2.50;;;1.80;;
33347;SDS011;19707;51.158;17.124;2022-12-07T03:40:48;2.10;;;1.90;;
33347;SDS011;19707;51.158;17.124;2022-12-07T03:44:08;2.50;;;2.20;;
33347;SDS011;19707;51.158;17.124;2022-12-07T03:47:14;3.00;;;2.15;;
33347;SDS011;19707;51.158;17.124;2022-12-07T03:50:42;1.87;;;1.75;;
33347;SDS011;19707;51.158;17.124;2022-12-07T03:53:54;2.47;;;1.65;;
33347;SDS011;19707;51.158;17.124;2022-12-07T03:57:16;2.33;;;1.80;;
33347;SDS011;19707;51.158;17.124;2022-12-07T04:00:18;2.90;;;2.00;;
33347;SDS011;19707;51.158;17.124;2022-12-07T04:03:20;3.58;;;2.05;;
33347;SDS011;19707;51.158;17.124;2022-12-07T04:06:21;3.80;;;2.42;;
33347;SDS011;19707;51.158;17.124;2022-12-07T04:09:23;2.95;;;2.30;;
33347;SDS011;19707;51.158;17.124;2022-12-07T04:12:26;2.42;;;2.20;;
33347;SDS011;19707;51.158;17.124;2022-12-07T04:15:27;3.15;;;2.37;;
33347;SDS011;19707;51.158;17.124;2022-12-07T04:18:29;4.90;;;2.92;;
33347;SDS011;19707;51.158;17.124;2022-12-07T04:21:30;4.30;;;2.87;;
33347;SDS011;19707;51.158;17.124;2022-12-07T04:24:33;3.30;;;2.55;;
33347;SDS011;19707;51.158;17.124;2022-12-07T04:27:35;3.42;;;3.12;;
33347;SDS011;19707;51.158;17.124;2022-12-07T04:30:36;4.00;;;3.30;;
33347;SDS011;19707;51.158;17.124;2022-12-07T04:33:38;6.15;;;3.87;;
33347;SDS011;19707;51.158;17.124;2022-12-07T04:36:40;3.55;;;3.25;;
33347;SDS011;19707;51.158;17.124;2022-12-07T04:39:43;4.05;;;3.15;;
33347;SDS011;19707;51.158;17.124;2022-12-07T04:42:45;4.30;;;3.17;;
33347;SDS011;19707;51.158;17.124;2022-12-07T04:45:49;3.45;;;3.15;;
33347;SDS011;19707;51.158;17.124;2022-12-07T04:48:52;3.17;;;2.92;;
33347;SDS011;19707;51.158;17.124;2022-12-07T04:51:54;3.45;;;2.52;;
33347;SDS011;19707;51.158;17.124;2022-12-07T04:54:55;2.72;;;2.25;;
33347;SDS011;19707;51.158;17.124;2022-12-07T04:57:57;3.05;;;2.30;;
33347;SDS011;19707;51.158;17.124;2022-12-07T05:00:58;3.05;;;2.52;;
33347;SDS011;19707;51.158;17.124;2022-12-07T05:04:00;2.83;;;2.60;;
33347;SDS011;19707;51.158;17.124;2022-12-07T05:07:01;2.92;;;2.62;;
33347;SDS011;19707;51.158;17.124;2022-12-07T05:10:04;3.60;;;2.40;;
33347;SDS011;19707;51.158;17.124;2022-12-07T05:13:08;4.22;;;2.87;;
33347;SDS011;19707;51.158;17.124;2022-12-07T05:16:10;4.95;;;3.58;;
33347;SDS011;19707;51.158;17.124;2022-12-07T05:19:12;6.03;;;4.08;;
33347;SDS011;19707;51.158;17.124;2022-12-07T05:22:13;5.58;;;4.60;;
33347;SDS011;19707;51.158;17.124;2022-12-07T05:25:16;6.72;;;4.45;;
33347;SDS011;19707;51.158;17.124;2022-12-07T05:28:17;6.62;;;5.03;;
33347;SDS011;19707;51.158;17.124;2022-12-07T05:31:19;6.78;;;4.75;;
33347;SDS011;19707;51.158;17.124;2022-12-07T05:34:21;7.58;;;5.15;;
33347;SDS011;19707;51.158;17.124;2022-12-07T05:37:22;6.30;;;4.75;;
33347;SDS011;19707;51.158;17.124;2022-12-07T05:40:24;6.80;;;5.08;;
33347;SDS011;19707;51.158;17.124;2022-12-07T05:43:25;8.15;;;6.22;;
33347;SDS011;19707;51.158;17.124;2022-12-07T05:46:27;9.30;;;5.95;;
33347;SDS011;19707;51.158;17.124;2022-12-07T05:49:29;9.30;;;6.42;;
33347;SDS011;19707;51.158;17.124;2022-12-07T05:52:30;10.88;;;6.08;;
33347;SDS011;19707;51.158;17.124;2022-12-07T05:55:32;10.75;;;7.60;;
33347;SDS011;19707;51.158;17.124;2022-12-07T05:58:34;10.13;;;7.83;;
33347;SDS011;19707;51.158;17.124;2022-12-07T06:01:58;12.53;;;8.93;;
33347;SDS011;19707;51.158;17.124;2022-12-07T06:05:05;13.45;;;9.35;;
33347;SDS011;19707;51.158;17.124;2022-12-07T06:08:08;17.45;;;10.35;;
33347;SDS011;19707;51.158;17.124;2022-12-07T06:11:09;15.18;;;11.15;;
33347;SDS011;19707;51.158;17.124;2022-12-07T06:14:29;17.37;;;11.88;;
33347;SDS011;19707;51.158;17.124;2022-12-07T06:17:31;18.23;;;12.55;;
33347;SDS011;19707;51.158;17.124;2022-12-07T06:20:33;17.87;;;12.30;;
33347;SDS011;19707;51.158;17.124;2022-12-07T06:23:35;20.12;;;13.93;;
33347;SDS011;19707;51.158;17.124;2022-12-07T06:26:36;24.25;;;15.93;;
33347;SDS011;19707;51.158;17.124;2022-12-07T06:29:38;23.18;;;15.40;;
33347;SDS011;19707;51.158;17.124;2022-12-07T06:32:39;24.37;;;15.28;;
33347;SDS011;19707;51.158;17.124;2022-12-07T06:35:41;23.57;;;15.90;;
33347;SDS011;19707;51.158;17.124;2022-12-07T06:38:42;25.43;;;15.68;;
33347;SDS011;19707;51.158;17.124;2022-12-07T06:41:44;24.30;;;16.57;;
33347;SDS011;19707;51.158;17.124;2022-12-07T06:44:46;21.82;;;15.25;;
33347;SDS011;19707;51.158;17.124;2022-12-07T06:47:47;23.30;;;15.45;;
33347;SDS011;19707;51.158;17.124;2022-12-07T06:50:49;20.30;;;14.13;;
33347;SDS011;19707;51.158;17.124;2022-12-07T06:53:50;22.35;;;15.48;;
33347;SDS011;19707;51.158;17.124;2022-12-07T06:56:52;24.95;;;16.00;;
33347;SDS011;19707;51.158;17.124;2022-12-07T06:59:54;24.10;;;15.48;;
33347;SDS011;19707;51.158;17.124;2022-12-07T07:02:55;23.67;;;16.02;;
33347;SDS011;19707;51.158;17.124;2022-12-07T07:05:57;24.43;;;15.85;;
33347;SDS011;19707;51.158;17.124;2022-12-07T07:08:59;22.65;;;14.63;;
33347;SDS011;19707;51.158;17.124;2022-12-07T07:12:01;27.60;;;16.20;;
33347;SDS011;19707;51.158;17.124;2022-12-07T07:15:03;22.60;;;15.58;;
33347;SDS011;19707;51.158;17.124;2022-12-07T07:18:06;24.07;;;15.85;;
33347;SDS011;19707;51.158;17.124;2022-12-07T07:21:07;23.60;;;16.05;;
33347;SDS011;19707;51.158;17.124;2022-12-07T07:24:09;25.00;;;15.18;;
33347;SDS011;19707;51.158;17.124;2022-12-07T07:27:11;25.10;;;15.28;;
33347;SDS011;19707;51.158;17.124;2022-12-07T07:30:12;27.37;;;16.50;;
33347;SDS011;19707;51.158;17.124;2022-12-07T07:33:15;23.77;;;15.18;;
33347;SDS011;19707;51.158;17.124;2022-12-07T07:36:16;27.00;;;16.62;;
33347;SDS011;19707;51.158;17.124;2022-12-07T07:39:18;34.43;;;22.85;;
33347;SDS011;19707;51.158;17.124;2022-12-07T07:42:20;30.23;;;16.80;;
33347;SDS011;19707;51.158;17.124;2022-12-07T07:45:22;28.73;;;16.77;;
33347;SDS011;19707;51.158;17.124;2022-12-07T07:48:25;24.35;;;16.05;;
33347;SDS011;19707;51.158;17.124;2022-12-07T07:51:26;29.02;;;16.02;;
33347;SDS011;19707;51.158;17.124;2022-12-07T07:54:28;24.18;;;15.25;;
33347;SDS011;19707;51.158;17.124;2022-12-07T07:57:30;24.10;;;14.68;;
33347;SDS011;19707;51.158;17.124;2022-12-07T08:00:31;22.67;;;14.43;;
33347;SDS011;19707;51.158;17.124;2022-12-07T08:03:33;24.18;;;14.68;;
33347;SDS011;19707;51.158;17.124;2022-12-07T08:06:34;19.67;;;14.07;;
33347;SDS011;19707;51.158;17.124;2022-12-07T08:09:36;23.30;;;13.85;;
33347;SDS011;19707;51.158;17.124;2022-12-07T08:12:39;22.22;;;13.38;;
33347;SDS011;19707;51.158;17.124;2022-12-07T08:16:05;20.27;;;13.60;;
33347;SDS011;19707;51.158;17.124;2022-12-07T08:19:11;24.77;;;14.28;;
33347;SDS011;19707;51.158;17.124;2022-12-07T08:22:13;21.65;;;13.18;;
33347;SDS011;19707;51.158;17.124;2022-12-07T08:25:15;21.17;;;14.33;;
33347;SDS011;19707;51.158;17.124;2022-12-07T08:28:17;24.82;;;14.65;;
33347;SDS011;19707;51.158;17.124;2022-12-07T08:31:18;21.95;;;13.90;;
33347;SDS011;19707;51.158;17.124;2022-12-07T08:34:20;22.95;;;14.30;;
33347;SDS011;19707;51.158;17.124;2022-12-07T08:37:22;22.75;;;14.30;;
33347;SDS011;19707;51.158;17.124;2022-12-07T08:40:23;24.07;;;15.25;;
33347;SDS011;19707;51.158;17.124;2022-12-07T08:43:25;20.57;;;14.45;;
33347;SDS011;19707;51.158;17.124;2022-12-07T08:46:31;20.10;;;13.98;;
33347;SDS011;19707;51.158;17.124;2022-12-07T08:49:41;18.27;;;13.60;;
33347;SDS011;19707;51.158;17.124;2022-12-07T08:52:50;22.77;;;13.00;;
33347;SDS011;19707;51.158;17.124;2022-12-07T08:55:53;20.25;;;13.78;;
33347;SDS011;19707;51.158;17.124;2022-12-07T08:58:55;20.37;;;12.45;;
33347;SDS011;19707;51.158;17.124;2022-12-07T09:01:57;19.25;;;12.63;;
33347;SDS011;19707;51.158;17.124;2022-12-07T09:04:59;19.52;;;13.05;;
33347;SDS011;19707;51.158;17.124;2022-12-07T09:08:01;20.05;;;14.23;;
33347;SDS011;19707;51.158;17.124;2022-12-07T09:11:03;20.75;;;14.03;;
33347;SDS011;19707;51.158;17.124;2022-12-07T09:14:05;21.37;;;14.38;;
33347;SDS011;19707;51.158;17.124;2022-12-07T09:17:07;18.57;;;13.88;;
33347;SDS011;19707;51.158;17.124;2022-12-07T09:20:11;21.82;;;13.80;;
33347;SDS011;19707;51.158;17.124;2022-12-07T09:23:13;20.72;;;14.15;;
33347;SDS011;19707;51.158;17.124;2022-12-07T09:26:15;17.48;;;12.13;;
33347;SDS011;19707;51.158;17.124;2022-12-07T09:29:17;18.30;;;11.75;;
33347;SDS011;19707;51.158;17.124;2022-12-07T09:32:18;16.07;;;11.45;;
33347;SDS011;19707;51.158;17.124;2022-12-07T09:35:20;15.70;;;11.70;;
33347;SDS011;19707;51.158;17.124;2022-12-07T09:38:22;15.58;;;11.93;;
33347;SDS011;19707;51.158;17.124;2022-12-07T09:41:25;16.48;;;11.08;;
33347;SDS011;19707;51.158;17.124;2022-12-07T09:44:28;15.20;;;10.90;;
33347;SDS011;19707;51.158;17.124;2022-12-07T09:47:30;17.17;;;10.85;;
33347;SDS011;19707;51.158;17.124;2022-12-07T09:50:31;17.10;;;10.32;;
33347;SDS011;19707;51.158;17.124;2022-12-07T09:53:33;12.23;;;9.35;;
33347;SDS011;19707;51.158;17.124;2022-12-07T09:56:35;14.10;;;9.48;;
33347;SDS011;19707;51.158;17.124;2022-12-07T09:59:37;9.40;;;7.92;;
33347;SDS011;19707;51.158;17.124;2022-12-07T10:02:44;11.63;;;7.90;;
33347;SDS011;19707;51.158;17.124;2022-12-07T10:05:47;11.12;;;7.58;;
33347;SDS011;19707;51.158;17.124;2022-12-07T10:08:51;11.43;;;8.03;;
33347;SDS011;19707;51.158;17.124;2022-12-07T10:15:10;11.03;;;8.10;;
33347;SDS011;19707;51.158;17.124;2022-12-07T10:21:37;9.58;;;6.47;;
33347;SDS011;19707;51.158;17.124;2022-12-07T10:24:39;8.18;;;6.33;;
33347;SDS011;19707;51.158;17.124;2022-12-07T10:27:43;9.23;;;7.15;;
33347;SDS011;19707;51.158;17.124;2022-12-07T10:30:49;13.22;;;7.33;;
33347;SDS011;19707;51.158;17.124;2022-12-07T10:34:12;10.82;;;7.28;;
33347;SDS011;19707;51.158;17.124;2022-12-07T10:37:30;10.18;;;7.03;;
33347;SDS011;19707;51.158;17.124;2022-12-07T10:40:36;10.55;;;6.67;;
33347;SDS011;19707;51.158;17.124;2022-12-07T10:43:51;9.10;;;6.67;;
33347;SDS011;19707;51.158;17.124;2022-12-07T10:51:07;13.62;;;5.97;;
33347;SDS011;19707;51.158;17.124;2022-12-07T11:02:02;8.95;;;5.85;;
33347;SDS011;19707;51.158;17.124;2022-12-07T11:12:26;7.62;;;5.55;;
33347;SDS011;19707;51.158;17.124;2022-12-07T11:19:22;8.13;;;5.47;;
33347;SDS011;19707;51.158;17.124;2022-12-07T11:32:45;7.25;;;5.00;;
33347;SDS011;19707;51.158;17.124;2022-12-07T11:36:33;7.90;;;5.67;;
33347;SDS011;19707;51.158;17.124;2022-12-07T11:39:49;8.45;;;5.65;;
33347;SDS011;19707;51.158;17.124;2022-12-07T11:43:01;8.40;;;6.08;;
33347;SDS011;19707;51.158;17.124;2022-12-07T11:46:13;12.20;;;5.72;;
33347;SDS011;19707;51.158;17.124;2022-12-07T11:59:18;7.47;;;4.83;;
33347;SDS011;19707;51.158;17.124;2022-12-07T12:02:28;6.30;;;4.53;;
33347;SDS011;19707;51.158;17.124;2022-12-07T12:05:55;9.35;;;4.78;;
33347;SDS011;19707;51.158;17.124;2022-12-07T12:09:11;9.30;;;5.12;;
33347;SDS011;19707;51.158;17.124;2022-12-07T12:15:51;7.33;;;5.28;;
33347;SDS011;19707;51.158;17.124;2022-12-07T12:19:15;9.88;;;5.67;;
33347;SDS011;19707;51.158;17.124;2022-12-07T12:22:36;9.08;;;5.35;;
33347;SDS011;19707;51.158;17.124;2022-12-07T12:25:48;9.43;;;6.03;;
33347;SDS011;19707;51.158;17.124;2022-12-07T12:32:36;6.67;;;5.97;;
33347;SDS011;19707;51.158;17.124;2022-12-07T12:35:37;6.30;;;5.05;;
33347;SDS011;19707;51.158;17.124;2022-12-07T12:42:19;5.83;;;5.08;;
33347;SDS011;19707;51.158;17.124;2022-12-07T12:45:28;7.65;;;6.03;;
33347;SDS011;19707;51.158;17.124;2022-12-07T12:48:35;10.85;;;5.90;;
33347;SDS011;19707;51.158;17.124;2022-12-07T12:51:38;6.33;;;4.30;;
33347;SDS011;19707;51.158;17.124;2022-12-07T12:54:57;7.58;;;5.87;;
33347;SDS011;19707;51.158;17.124;2022-12-07T13:01:36;10.35;;;6.40;;
33347;SDS011;19707;51.158;17.124;2022-12-07T13:04:52;7.15;;;5.45;;
33347;SDS011;19707;51.158;17.124;2022-12-07T13:08:00;7.97;;;6.25;;
33347;SDS011;19707;51.158;17.124;2022-12-07T13:11:16;9.28;;;6.72;;
33347;SDS011;19707;51.158;17.124;2022-12-07T13:14:40;10.80;;;6.12;;
33347;SDS011;19707;51.158;17.124;2022-12-07T13:24:12;8.58;;;5.17;;
33347;SDS011;19707;51.158;17.124;2022-12-07T13:27:14;6.42;;;5.05;;
33347;SDS011;19707;51.158;17.124;2022-12-07T13:30:19;10.50;;;6.55;;
33347;SDS011;19707;51.158;17.124;2022-12-07T13:33:30;10.45;;;6.50;;
33347;SDS011;19707;51.158;17.124;2022-12-07T13:40:27;12.93;;;8.08;;
33347;SDS011;19707;51.158;17.124;2022-12-07T13:43:41;12.15;;;6.85;;
33347;SDS011;19707;51.158;17.124;2022-12-07T13:53:45;10.00;;;5.65;;
33347;SDS011;19707;51.158;17.124;2022-12-07T14:00:15;11.20;;;6.67;;
33347;SDS011;19707;51.158;17.124;2022-12-07T14:03:34;11.05;;;5.92;;
33347;SDS011;19707;51.158;17.124;2022-12-07T14:06:46;13.78;;;8.13;;
33347;SDS011;19707;51.158;17.124;2022-12-07T14:10:22;13.62;;;6.83;;
33347;SDS011;19707;51.158;17.124;2022-12-07T14:20:34;14.53;;;8.33;;
33347;SDS011;19707;51.158;17.124;2022-12-07T14:23:45;13.05;;;7.70;;
33347;SDS011;19707;51.158;17.124;2022-12-07T14:27:18;12.75;;;8.65;;
33347;SDS011;19707;51.158;17.124;2022-12-07T14:30:34;11.93;;;7.50;;
33347;SDS011;19707;51.158;17.124;2022-12-07T14:33:44;10.03;;;6.60;;
33347;SDS011;19707;51.158;17.124;2022-12-07T14:36:46;10.45;;;6.67;;
33347;SDS011;19707;51.158;17.124;2022-12-07T14:39:48;8.63;;;5.08;;
33347;SDS011;19707;51.158;17.124;2022-12-07T14:42:57;8.75;;;6.08;;
33347;SDS011;19707;51.158;17.124;2022-12-07T14:46:04;10.73;;;6.27;;
33347;SDS011;19707;51.158;17.124;2022-12-07T14:49:06;7.25;;;5.87;;
33347;SDS011;19707;51.158;17.124;2022-12-07T14:52:11;9.95;;;6.03;;
33347;SDS011;19707;51.158;17.124;2022-12-07T14:55:24;13.85;;;6.72;;
33347;SDS011;19707;51.158;17.124;2022-12-07T15:01:29;10.28;;;5.78;;
33347;SDS011;19707;51.158;17.124;2022-12-07T15:04:32;13.48;;;6.50;;
33347;SDS011;19707;51.158;17.124;2022-12-07T15:07:34;9.15;;;6.00;;
33347;SDS011;19707;51.158;17.124;2022-12-07T15:10:36;12.05;;;6.08;;
33347;SDS011;19707;51.158;17.124;2022-12-07T15:13:39;11.68;;;6.65;;
33347;SDS011;19707;51.158;17.124;2022-12-07T15:16:59;9.20;;;6.15;;
33347;SDS011;19707;51.158;17.124;2022-12-07T15:20:14;15.75;;;8.55;;
33347;SDS011;19707;51.158;17.124;2022-12-07T15:23:17;12.37;;;7.80;;
33347;SDS011;19707;51.158;17.124;2022-12-07T15:29:26;14.10;;;7.50;;
33347;SDS011;19707;51.158;17.124;2022-12-07T15:32:28;11.73;;;6.62;;
33347;SDS011;19707;51.158;17.124;2022-12-07T15:35:29;13.58;;;8.18;;
33347;SDS011;19707;51.158;17.124;2022-12-07T15:38:31;15.30;;;8.38;;
33347;SDS011;19707;51.158;17.124;2022-12-07T15:41:34;11.18;;;6.75;;
33347;SDS011;19707;51.158;17.124;2022-12-07T15:48:00;9.33;;;6.35;;
33347;SDS011;19707;51.158;17.124;2022-12-07T15:54:32;7.53;;;5.97;;
33347;SDS011;19707;51.158;17.124;2022-12-07T15:57:36;12.18;;;7.92;;
33347;SDS011;19707;51.158;17.124;2022-12-07T16:00:39;12.70;;;7.37;;
33347;SDS011;19707;51.158;17.124;2022-12-07T16:03:42;11.55;;;6.83;;
33347;SDS011;19707;51.158;17.124;2022-12-07T16:06:47;14.50;;;7.25;;
33347;SDS011;19707;51.158;17.124;2022-12-07T16:09:50;11.80;;;7.03;;
33347;SDS011;19707;51.158;17.124;2022-12-07T16:12:53;13.40;;;8.05;;
33347;SDS011;19707;51.158;17.124;2022-12-07T16:15:56;12.40;;;7.08;;
33347;SDS011;19707;51.158;17.124;2022-12-07T16:19:01;9.58;;;7.00;;
33347;SDS011;19707;51.158;17.124;2022-12-07T16:22:04;16.82;;;9.05;;
33347;SDS011;19707;51.158;17.124;2022-12-07T16:28:32;13.22;;;8.10;;
33347;SDS011;19707;51.158;17.124;2022-12-07T16:31:35;17.30;;;9.15;;
33347;SDS011;19707;51.158;17.124;2022-12-07T16:34:38;13.50;;;8.80;;
33347;SDS011;19707;51.158;17.124;2022-12-07T16:37:41;14.23;;;9.10;;
33347;SDS011;19707;51.158;17.124;2022-12-07T16:40:47;16.57;;;8.58;;
33347;SDS011;19707;51.158;17.124;2022-12-07T16:43:49;13.78;;;9.45;;
33347;SDS011;19707;51.158;17.124;2022-12-07T16:46:52;13.60;;;8.00;;
33347;SDS011;19707;51.158;17.124;2022-12-07T16:49:58;13.98;;;8.45;;
33347;SDS011;19707;51.158;17.124;2022-12-07T16:53:00;11.63;;;8.45;;
33347;SDS011;19707;51.158;17.124;2022-12-07T16:56:03;11.03;;;8.43;;
33347;SDS011;19707;51.158;17.124;2022-12-07T16:59:07;12.60;;;8.08;;
33347;SDS011;19707;51.158;17.124;2022-12-07T17:02:11;15.18;;;9.23;;
33347;SDS011;19707;51.158;17.124;2022-12-07T17:05:13;14.40;;;8.73;;
33347;SDS011;19707;51.158;17.124;2022-12-07T17:08:16;13.38;;;8.20;;
33347;SDS011;19707;51.158;17.124;2022-12-07T17:11:23;13.38;;;8.13;;
33347;SDS011;19707;51.158;17.124;2022-12-07T17:14:24;15.55;;;8.68;;
33347;SDS011;19707;51.158;17.124;2022-12-07T17:17:44;12.55;;;8.35;;
33347;SDS011;19707;51.158;17.124;2022-12-07T17:21:04;14.38;;;7.62;;
33347;SDS011;19707;51.158;17.124;2022-12-07T17:24:09;14.10;;;8.15;;
33347;SDS011;19707;51.158;17.124;2022-12-07T17:27:15;13.85;;;8.50;;
33347;SDS011;19707;51.158;17.124;2022-12-07T17:30:17;12.55;;;8.48;;
33347;SDS011;19707;51.158;17.124;2022-12-07T17:33:21;18.87;;;9.18;;
33347;SDS011;19707;51.158;17.124;2022-12-07T17:36:27;19.35;;;9.23;;
33347;SDS011;19707;51.158;17.124;2022-12-07T17:44:30;12.90;;;7.30;;
33347;SDS011;19707;51.158;17.124;2022-12-07T17:47:46;10.65;;;7.33;;
33347;SDS011;19707;51.158;17.124;2022-12-07T17:50:46;14.47;;;7.78;;
33347;SDS011;19707;51.158;17.124;2022-12-07T17:54:06;16.32;;;10.08;;
33347;SDS011;19707;51.158;17.124;2022-12-07T17:57:08;17.52;;;10.18;;
33347;SDS011;19707;51.158;17.124;2022-12-07T18:00:11;14.73;;;8.90;;
33347;SDS011;19707;51.158;17.124;2022-12-07T18:03:14;16.07;;;9.20;;
33347;SDS011;19707;51.158;17.124;2022-12-07T18:06:17;17.23;;;8.83;;
33347;SDS011;19707;51.158;17.124;2022-12-07T18:09:19;14.80;;;8.33;;
33347;SDS011;19707;51.158;17.124;2022-12-07T18:12:23;16.20;;;9.08;;
33347;SDS011;19707;51.158;17.124;2022-12-07T18:15:26;18.73;;;9.15;;
33347;SDS011;19707;51.158;17.124;2022-12-07T18:18:33;23.92;;;11.48;;
33347;SDS011;19707;51.158;17.124;2022-12-07T18:21:37;21.77;;;12.37;;
33347;SDS011;19707;51.158;17.124;2022-12-07T18:24:41;18.05;;;9.98;;
33347;SDS011;19707;51.158;17.124;2022-12-07T18:27:44;15.78;;;9.80;;
33347;SDS011;19707;51.158;17.124;2022-12-07T18:30:46;13.20;;;7.75;;
33347;SDS011;19707;51.158;17.124;2022-12-07T18:33:49;15.03;;;7.65;;
33347;SDS011;19707;51.158;17.124;2022-12-07T18:36:52;14.83;;;6.62;;
33347;SDS011;19707;51.158;17.124;2022-12-07T18:40:02;13.05;;;7.45;;
33347;SDS011;19707;51.158;17.124;2022-12-07T18:43:06;13.70;;;7.40;;
33347;SDS011;19707;51.158;17.124;2022-12-07T18:46:15;14.38;;;6.83;;
33347;SDS011;19707;51.158;17.124;2022-12-07T18:49:20;12.93;;;6.53;;
33347;SDS011;19707;51.158;17.124;2022-12-07T18:52:24;11.55;;;7.05;;
33347;SDS011;19707;51.158;17.124;2022-12-07T18:55:26;14.68;;;8.03;;
33347;SDS011;19707;51.158;17.124;2022-12-07T18:58:29;13.88;;;6.95;;
33347;SDS011;19707;51.158;17.124;2022-12-07T19:01:31;19.05;;;8.28;;
33347;SDS011;19707;51.158;17.124;2022-12-07T19:04:36;18.62;;;8.38;;
33347;SDS011;19707;51.158;17.124;2022-12-07T19:07:38;19.65;;;8.20;;
33347;SDS011;19707;51.158;17.124;2022-12-07T19:10:40;18.95;;;9.65;;
33347;SDS011;19707;51.158;17.124;2022-12-07T19:13:42;16.23;;;10.13;;
33347;SDS011;19707;51.158;17.124;2022-12-07T19:16:45;21.93;;;11.97;;
33347;SDS011;19707;51.158;17.124;2022-12-07T19:19:49;22.60;;;10.93;;
33347;SDS011;19707;51.158;17.124;2022-12-07T19:22:52;22.13;;;11.30;;
33347;SDS011;19707;51.158;17.124;2022-12-07T19:25:55;32.80;;;14.47;;
33347;SDS011;19707;51.158;17.124;2022-12-07T19:28:58;24.07;;;11.60;;
33347;SDS011;19707;51.158;17.124;2022-12-07T19:32:03;19.93;;;10.93;;
33347;SDS011;19707;51.158;17.124;2022-12-07T19:35:09;23.25;;;10.78;;
33347;SDS011;19707;51.158;17.124;2022-12-07T19:38:18;24.67;;;12.13;;
33347;SDS011;19707;51.158;17.124;2022-12-07T19:41:20;22.42;;;11.15;;
33347;SDS011;19707;51.158;17.124;2022-12-07T19:44:35;21.82;;;11.30;;
33347;SDS011;19707;51.158;17.124;2022-12-07T19:47:38;23.85;;;10.80;;
33347;SDS011;19707;51.158;17.124;2022-12-07T19:50:41;20.50;;;10.43;;
33347;SDS011;19707;51.158;17.124;2022-12-07T19:53:43;19.73;;;9.88;;
33347;SDS011;19707;51.158;17.124;2022-12-07T19:56:48;19.55;;;9.78;;
33347;SDS011;19707;51.158;17.124;2022-12-07T19:59:57;19.05;;;9.40;;
33347;SDS011;19707;51.158;17.124;2022-12-07T20:06:16;14.47;;;9.13;;
33347;SDS011;19707;51.158;17.124;2022-12-07T20:09:27;17.77;;;8.55;;
33347;SDS011;19707;51.158;17.124;2022-12-07T20:12:30;18.85;;;10.15;;
33347;SDS011;19707;51.158;17.124;2022-12-07T20:15:56;21.73;;;10.08;;
33347;SDS011;19707;51.158;17.124;2022-12-07T20:19:01;21.10;;;10.00;;